MDT,Max TemperatureF,Mean TemperatureF,Min TemperatureF,Max Dew PointF,MeanDew PointF,Min DewpointF,Max Humidity, Mean Humidity, Min Humidity, Max Sea Level PressureIn, Mean Sea Level PressureIn, Min Sea Level PressureIn, Max VisibilityMiles, Mean VisibilityMiles, Min VisibilityMiles, Max Wind SpeedMPH, Mean Wind SpeedMPH, Max Gust SpeedMPH,PrecipitationIn, CloudCover, Events, WindDirDegrees
2012-10-1,71,54,36,49,38,25,86,54,21,30.24,30.13,30.01,10,10,9,25,11,32,T,1,,349
2012-10-2,85,60,34,38,34,28,76,47,17,30.12,29.91,29.74,10,10,10,15,8,21,0.00,0,,195
2012-10-3,94,69,43,38,33,20,76,42,7,30.18,29.81,29.64,10,10,8,40,16,49,0.00,0,,295
2012-10-4,55,46,36,29,26,21,75,51,26,30.40,30.33,30.20,10,10,9,31,11,38,0.00,0,,5
2012-10-5,38,36,33,35,32,25,96,78,59,30.45,30.36,30.30,10,7,1,9,5,12,0.06,8,Snow,91
2012-10-6,37,30,22,36,31,21,96,89,82,30.45,30.37,30.31,10,4,0,13,5,15,0.41,7,Fog-Rain-Snow,75
2012-10-7,54,36,18,36,23,16,100,63,26,30.41,30.25,30.08,10,5,0,14,8,18,0.00,1,Fog,249
2012-10-8,74,52,30,32,27,19,85,50,14,30.05,29.91,29.80,10,10,10,20,8,28,0.00,0,,271
2012-10-9,56,45,33,38,33,29,86,62,38,30.26,30.07,29.80,10,10,10,24,12,31,0.00,2,,357
2012-10-10,65,48,30,37,34,28,92,63,34,30.26,30.12,29.94,10,10,9,25,11,32,0.00,0,,205
2012-10-11,60,47,34,39,33,26,83,59,35,30.36,30.12,29.91,10,10,10,24,11,29,0.00,0,,50
2012-10-12,54,42,29,40,31,24,85,70,54,30.35,30.14,29.87,10,10,10,24,9,30,0.00,3,,148
2012-10-13,75,58,41,45,39,30,86,59,31,29.91,29.76,29.65,10,10,10,32,14,41,T,2,Rain-Thunderstorm,307
2012-10-14,73,59,44,38,35,31,66,43,20,30.13,30.06,29.93,10,10,8,22,12,29,0.00,1,,304
2012-10-15,83,61,39,40,33,26,79,46,13,30.04,29.89,29.73,10,10,5,16,8,24,0.00,0,,248
2012-10-16,79,63,47,46,35,31,61,40,19,29.80,29.61,29.44,10,10,10,30,11,41,0.03,2,Rain,266
2012-10-17,59,50,41,47,24,14,71,45,19,29.92,29.75,29.55,10,10,9,37,20,53,0.00,3,,320
2012-10-18,57,48,39,21,12,5,45,30,14,30.02,29.96,29.92,10,6,1,48,27,62,0.00,4,,316
2012-10-19,70,51,31,27,19,9,53,35,16,30.04,29.91,29.75,10,10,10,16,8,22,0.00,0,,290
2012-10-20,83,61,39,28,25,22,59,35,10,29.76,29.67,29.58,10,10,6,18,9,23,0.00,0,,247
2012-10-21,73,53,33,37,33,26,76,52,27,29.86,29.74,29.59,10,10,10,26,11,32,0.00,0,,16
2012-10-22,64,52,40,49,43,35,93,75,56,29.97,29.86,29.75,10,8,5,16,9,21,0.00,4,,41
2012-10-23,80,64,47,49,47,40,100,63,25,29.78,29.71,29.60,10,6,0,21,8,26,0.00,4,Fog,146
2012-10-24,54,43,32,41,36,30,92,69,46,30.00,29.87,29.76,10,8,1,30,16,37,0.03,7,Snow,27
2012-10-25,41,33,25,31,28,22,92,76,59,30.46,30.20,29.97,10,6,1,29,11,36,0.19,5,Snow,347
2012-10-26,36,31,25,27,24,21,92,78,64,30.63,30.49,30.38,10,10,7,12,5,15,0.00,5,,218
2012-10-27,52,37,22,30,25,22,92,64,35,30.36,30.24,30.13,10,10,5,18,7,24,0.00,2,,200
2012-10-28,65,45,25,34,29,22,92,57,22,30.23,30.11,30.00,10,10,10,17,5,23,0.00,5,,174
2012-10-29,76,55,34,42,35,30,82,53,23,30.12,30.04,29.97,10,9,4,15,5,21,0.00,0,,274
2012-10-30,74,56,38,40,36,31,76,48,20,30.05,30.01,29.96,10,10,10,17,8,23,0.00,0,,313
2012-10-31,74,55,36,38,33,30,85,53,20,30.08,30.04,29.99,10,10,10,16,7,20,0.00,0,,310